Terminal Aerodrome Forecast
Issued by NWS

Home | Current Version | Previous Version | Graphics & Text | Print | Product List | Glossary On
Versions: 1 2 3 4 5 6 7 8 9 10 11 12 13 14
000
FTUS43 KICT 282200 AAA
TAFRSL
TAF AMD
KRSL 282241Z 2823/2918 16016G23KT P6SM VCTS OVC070CB
      TEMPO 2823/2903 VRB15G30KT 3SM TSRA OVC050CB
     FM290800 22008KT P6SM BKN120
     FM291500 32007KT P6SM BKN120=

USA.gov is the U.S. government's official web portal to all federal, state and local government web resources and services.